sensor_id;sensor_type;location;lat;lon;timestamp;P1;durP1;ratioP1;P2;durP2;ratioP2
65535;SDS011;52145;49.342;9.116;2023-08-21T00:00:52;12.30;;;5.78;;
65535;SDS011;52145;49.342;9.116;2023-08-21T00:03:18;8.88;;;5.60;;
65535;SDS011;52145;49.342;9.116;2023-08-21T00:05:44;9.75;;;6.25;;
65535;SDS011;52145;49.342;9.116;2023-08-21T00:08:10;11.27;;;6.28;;
65535;SDS011;52145;49.342;9.116;2023-08-21T00:10:39;10.05;;;5.15;;
65535;SDS011;52145;49.342;9.116;2023-08-21T00:13:06;8.70;;;5.78;;
65535;SDS011;52145;49.342;9.116;2023-08-21T00:15:32;8.70;;;5.13;;
65535;SDS011;52145;49.342;9.116;2023-08-21T00:17:58;8.07;;;6.18;;
65535;SDS011;52145;49.342;9.116;2023-08-21T00:20:25;9.82;;;6.57;;
65535;SDS011;52145;49.342;9.116;2023-08-21T00:22:51;10.82;;;5.78;;
65535;SDS011;52145;49.342;9.116;2023-08-21T00:25:17;10.68;;;6.07;;
65535;SDS011;52145;49.342;9.116;2023-08-21T00:27:43;12.95;;;5.80;;
65535;SDS011;52145;49.342;9.116;2023-08-21T00:30:09;9.85;;;5.45;;
65535;SDS011;52145;49.342;9.116;2023-08-21T00:32:35;12.73;;;6.50;;
65535;SDS011;52145;49.342;9.116;2023-08-21T00:35:01;9.65;;;5.60;;
65535;SDS011;52145;49.342;9.116;2023-08-21T00:37:27;9.50;;;5.70;;
65535;SDS011;52145;49.342;9.116;2023-08-21T00:39:53;8.00;;;5.47;;
65535;SDS011;52145;49.342;9.116;2023-08-21T00:42:19;8.38;;;5.22;;
65535;SDS011;52145;49.342;9.116;2023-08-21T00:44:45;8.27;;;5.65;;
65535;SDS011;52145;49.342;9.116;2023-08-21T00:47:11;9.43;;;5.70;;
65535;SDS011;52145;49.342;9.116;2023-08-21T00:49:37;10.27;;;5.53;;
65535;SDS011;52145;49.342;9.116;2023-08-21T00:52:04;9.50;;;5.53;;
65535;SDS011;52145;49.342;9.116;2023-08-21T00:54:31;10.13;;;5.60;;
65535;SDS011;52145;49.342;9.116;2023-08-21T00:56:57;9.60;;;5.22;;
65535;SDS011;52145;49.342;9.116;2023-08-21T00:59:23;9.63;;;5.93;;
65535;SDS011;52145;49.342;9.116;2023-08-21T01:01:49;7.40;;;5.03;;
65535;SDS011;52145;49.342;9.116;2023-08-21T01:04:15;8.05;;;5.20;;
65535;SDS011;52145;49.342;9.116;2023-08-21T01:06:41;8.52;;;5.63;;
65535;SDS011;52145;49.342;9.116;2023-08-21T01:09:13;10.57;;;6.10;;
65535;SDS011;52145;49.342;9.116;2023-08-21T01:11:50;8.63;;;5.97;;
65535;SDS011;52145;49.342;9.116;2023-08-21T01:16:59;11.00;;;6.05;;
65535;SDS011;52145;49.342;9.116;2023-08-21T01:19:58;8.18;;;6.10;;
65535;SDS011;52145;49.342;9.116;2023-08-21T01:22:17;7.88;;;5.78;;
65535;SDS011;52145;49.342;9.116;2023-08-21T01:24:43;9.63;;;5.78;;
65535;SDS011;52145;49.342;9.116;2023-08-21T01:27:09;10.10;;;5.95;;
65535;SDS011;52145;49.342;9.116;2023-08-21T01:29:36;8.55;;;5.60;;
65535;SDS011;52145;49.342;9.116;2023-08-21T01:32:17;10.52;;;6.10;;
65535;SDS011;52145;49.342;9.116;2023-08-21T01:34:45;9.93;;;6.20;;
65535;SDS011;52145;49.342;9.116;2023-08-21T01:37:11;10.55;;;6.32;;
65535;SDS011;52145;49.342;9.116;2023-08-21T01:39:39;8.88;;;5.45;;
65535;SDS011;52145;49.342;9.116;2023-08-21T01:42:04;8.10;;;5.25;;
65535;SDS011;52145;49.342;9.116;2023-08-21T01:44:30;6.80;;;5.45;;
65535;SDS011;52145;49.342;9.116;2023-08-21T01:46:56;10.88;;;5.97;;
65535;SDS011;52145;49.342;9.116;2023-08-21T01:49:22;9.18;;;5.75;;
65535;SDS011;52145;49.342;9.116;2023-08-21T01:51:48;13.40;;;6.40;;
65535;SDS011;52145;49.342;9.116;2023-08-21T01:54:14;8.20;;;5.55;;
65535;SDS011;52145;49.342;9.116;2023-08-21T01:56:40;11.18;;;5.78;;
65535;SDS011;52145;49.342;9.116;2023-08-21T01:59:06;13.05;;;5.80;;
65535;SDS011;52145;49.342;9.116;2023-08-21T02:01:32;7.80;;;5.75;;
65535;SDS011;52145;49.342;9.116;2023-08-21T02:03:58;8.57;;;5.95;;
65535;SDS011;52145;49.342;9.116;2023-08-21T02:06:24;10.40;;;5.97;;
65535;SDS011;52145;49.342;9.116;2023-08-21T02:08:50;9.43;;;5.75;;
65535;SDS011;52145;49.342;9.116;2023-08-21T02:11:17;10.23;;;6.03;;
65535;SDS011;52145;49.342;9.116;2023-08-21T02:13:43;8.90;;;5.82;;
65535;SDS011;52145;49.342;9.116;2023-08-21T02:16:09;10.23;;;5.47;;
65535;SDS011;52145;49.342;9.116;2023-08-21T02:18:34;10.00;;;5.72;;
65535;SDS011;52145;49.342;9.116;2023-08-21T02:21:01;11.00;;;6.07;;
65535;SDS011;52145;49.342;9.116;2023-08-21T02:23:27;7.20;;;5.00;;
65535;SDS011;52145;49.342;9.116;2023-08-21T02:25:54;7.53;;;5.45;;
65535;SDS011;52145;49.342;9.116;2023-08-21T02:28:20;9.40;;;6.00;;
65535;SDS011;52145;49.342;9.116;2023-08-21T02:30:46;9.15;;;5.47;;
65535;SDS011;52145;49.342;9.116;2023-08-21T02:33:12;8.93;;;6.20;;
65535;SDS011;52145;49.342;9.116;2023-08-21T02:35:38;11.20;;;5.60;;
65535;SDS011;52145;49.342;9.116;2023-08-21T02:38:04;18.35;;;6.18;;
65535;SDS011;52145;49.342;9.116;2023-08-21T02:40:30;9.30;;;5.68;;
65535;SDS011;52145;49.342;9.116;2023-08-21T02:42:56;11.45;;;6.70;;
65535;SDS011;52145;49.342;9.116;2023-08-21T02:45:22;9.30;;;5.97;;
65535;SDS011;52145;49.342;9.116;2023-08-21T02:47:48;10.05;;;5.75;;
65535;SDS011;52145;49.342;9.116;2023-08-21T02:50:14;7.70;;;5.57;;
65535;SDS011;52145;49.342;9.116;2023-08-21T02:52:40;8.85;;;5.88;;
65535;SDS011;52145;49.342;9.116;2023-08-21T02:55:06;9.20;;;6.53;;
65535;SDS011;52145;49.342;9.116;2023-08-21T02:57:32;15.50;;;5.88;;
65535;SDS011;52145;49.342;9.116;2023-08-21T02:59:58;11.77;;;5.97;;
65535;SDS011;52145;49.342;9.116;2023-08-21T03:02:24;9.25;;;5.68;;
65535;SDS011;52145;49.342;9.116;2023-08-21T03:04:50;10.38;;;5.57;;
65535;SDS011;52145;49.342;9.116;2023-08-21T03:07:16;10.82;;;6.53;;
65535;SDS011;52145;49.342;9.116;2023-08-21T03:09:44;7.80;;;5.57;;
65535;SDS011;52145;49.342;9.116;2023-08-21T03:12:11;10.27;;;5.65;;
65535;SDS011;52145;49.342;9.116;2023-08-21T03:14:37;8.88;;;5.82;;
65535;SDS011;52145;49.342;9.116;2023-08-21T03:17:03;10.18;;;5.57;;
65535;SDS011;52145;49.342;9.116;2023-08-21T03:19:29;11.82;;;6.40;;
65535;SDS011;52145;49.342;9.116;2023-08-21T03:21:55;9.45;;;5.93;;
65535;SDS011;52145;49.342;9.116;2023-08-21T03:24:21;10.73;;;5.75;;
65535;SDS011;52145;49.342;9.116;2023-08-21T03:26:47;9.63;;;6.35;;
65535;SDS011;52145;49.342;9.116;2023-08-21T03:29:13;9.73;;;5.80;;
65535;SDS011;52145;49.342;9.116;2023-08-21T03:31:39;9.32;;;6.03;;
65535;SDS011;52145;49.342;9.116;2023-08-21T03:34:05;10.25;;;6.13;;
65535;SDS011;52145;49.342;9.116;2023-08-21T03:36:31;8.65;;;5.07;;
65535;SDS011;52145;49.342;9.116;2023-08-21T03:39:00;9.88;;;6.07;;
65535;SDS011;52145;49.342;9.116;2023-08-21T03:41:26;8.65;;;5.60;;
65535;SDS011;52145;49.342;9.116;2023-08-21T03:43:53;10.02;;;6.63;;
65535;SDS011;52145;49.342;9.116;2023-08-21T03:46:19;8.98;;;5.60;;
65535;SDS011;52145;49.342;9.116;2023-08-21T03:48:45;9.90;;;5.80;;
65535;SDS011;52145;49.342;9.116;2023-08-21T06:05:50;10.85;;;7.00;;
65535;SDS011;52145;49.342;9.116;2023-08-21T06:08:16;8.25;;;6.22;;
65535;SDS011;52145;49.342;9.116;2023-08-21T06:10:43;8.52;;;6.43;;
65535;SDS011;52145;49.342;9.116;2023-08-21T06:13:09;11.60;;;6.82;;
65535;SDS011;52145;49.342;9.116;2023-08-21T06:15:35;11.20;;;6.13;;
65535;SDS011;52145;49.342;9.116;2023-08-21T06:18:01;10.35;;;5.75;;
65535;SDS011;52145;49.342;9.116;2023-08-21T06:20:27;9.90;;;6.90;;
65535;SDS011;52145;49.342;9.116;2023-08-21T06:22:52;8.98;;;6.30;;
65535;SDS011;52145;49.342;9.116;2023-08-21T06:25:18;10.20;;;6.82;;
65535;SDS011;52145;49.342;9.116;2023-08-21T06:27:44;7.97;;;5.75;;
65535;SDS011;52145;49.342;9.116;2023-08-21T06:30:10;10.27;;;6.28;;
65535;SDS011;52145;49.342;9.116;2023-08-21T06:32:37;8.90;;;6.00;;
65535;SDS011;52145;49.342;9.116;2023-08-21T06:35:03;8.13;;;6.47;;
65535;SDS011;52145;49.342;9.116;2023-08-21T06:37:29;11.60;;;6.43;;
65535;SDS011;52145;49.342;9.116;2023-08-21T06:39:55;9.77;;;6.70;;
65535;SDS011;52145;49.342;9.116;2023-08-21T06:42:21;12.40;;;6.70;;
65535;SDS011;52145;49.342;9.116;2023-08-21T06:44:47;11.23;;;6.18;;
65535;SDS011;52145;49.342;9.116;2023-08-21T06:47:13;10.88;;;5.95;;
65535;SDS011;52145;49.342;9.116;2023-08-21T06:49:39;9.43;;;6.22;;
65535;SDS011;52145;49.342;9.116;2023-08-21T06:52:05;11.93;;;6.68;;
65535;SDS011;52145;49.342;9.116;2023-08-21T06:54:31;8.68;;;6.45;;
65535;SDS011;52145;49.342;9.116;2023-08-21T06:56:57;10.48;;;7.28;;
65535;SDS011;52145;49.342;9.116;2023-08-21T06:59:23;9.68;;;7.07;;
65535;SDS011;52145;49.342;9.116;2023-08-21T07:01:49;11.43;;;7.97;;
65535;SDS011;52145;49.342;9.116;2023-08-21T07:04:16;12.40;;;6.93;;
65535;SDS011;52145;49.342;9.116;2023-08-21T07:06:42;13.13;;;7.57;;
65535;SDS011;52145;49.342;9.116;2023-08-21T07:09:08;11.85;;;7.57;;
65535;SDS011;52145;49.342;9.116;2023-08-21T07:11:35;10.30;;;7.35;;
65535;SDS011;52145;49.342;9.116;2023-08-21T07:14:00;10.15;;;7.60;;
65535;SDS011;52145;49.342;9.116;2023-08-21T07:16:26;12.85;;;7.75;;
65535;SDS011;52145;49.342;9.116;2023-08-21T07:18:52;12.90;;;8.13;;
65535;SDS011;52145;49.342;9.116;2023-08-21T07:21:18;13.95;;;7.70;;
65535;SDS011;52145;49.342;9.116;2023-08-21T07:23:44;10.93;;;8.10;;
65535;SDS011;52145;49.342;9.116;2023-08-21T07:26:10;13.30;;;7.68;;
65535;SDS011;52145;49.342;9.116;2023-08-21T07:28:36;11.13;;;8.30;;
65535;SDS011;52145;49.342;9.116;2023-08-21T07:31:02;14.48;;;8.50;;
65535;SDS011;52145;49.342;9.116;2023-08-21T07:33:28;13.55;;;7.82;;
65535;SDS011;52145;49.342;9.116;2023-08-21T07:35:58;11.93;;;8.10;;
65535;SDS011;52145;49.342;9.116;2023-08-21T07:38:24;10.90;;;7.78;;
65535;SDS011;52145;49.342;9.116;2023-08-21T07:40:50;11.73;;;9.32;;
65535;SDS011;52145;49.342;9.116;2023-08-21T07:43:16;13.75;;;8.02;;
65535;SDS011;52145;49.342;9.116;2023-08-21T07:45:42;11.95;;;8.95;;
65535;SDS011;52145;49.342;9.116;2023-08-21T07:48:08;10.65;;;8.73;;
65535;SDS011;52145;49.342;9.116;2023-08-21T07:50:34;13.38;;;9.45;;
65535;SDS011;52145;49.342;9.116;2023-08-21T07:53:00;11.75;;;9.20;;
65535;SDS011;52145;49.342;9.116;2023-08-21T07:55:26;14.63;;;9.00;;
65535;SDS011;52145;49.342;9.116;2023-08-21T07:57:52;12.73;;;9.38;;
65535;SDS011;52145;49.342;9.116;2023-08-21T08:00:18;14.90;;;9.55;;
65535;SDS011;52145;49.342;9.116;2023-08-21T08:02:44;13.43;;;9.27;;
65535;SDS011;52145;49.342;9.116;2023-08-21T08:05:10;11.68;;;9.43;;
65535;SDS011;52145;49.342;9.116;2023-08-21T08:07:35;13.40;;;9.35;;
65535;SDS011;52145;49.342;9.116;2023-08-21T08:10:01;12.25;;;8.45;;
65535;SDS011;52145;49.342;9.116;2023-08-21T08:12:27;12.43;;;9.82;;
65535;SDS011;52145;49.342;9.116;2023-08-21T08:14:53;12.00;;;9.35;;
65535;SDS011;52145;49.342;9.116;2023-08-21T08:17:19;13.00;;;10.02;;
65535;SDS011;52145;49.342;9.116;2023-08-21T08:19:45;14.02;;;9.93;;
65535;SDS011;52145;49.342;9.116;2023-08-21T08:22:11;14.13;;;10.30;;
65535;SDS011;52145;49.342;9.116;2023-08-21T08:24:37;17.15;;;10.35;;
65535;SDS011;52145;49.342;9.116;2023-08-21T08:27:03;15.55;;;10.45;;
65535;SDS011;52145;49.342;9.116;2023-08-21T08:29:29;12.98;;;10.40;;
65535;SDS011;52145;49.342;9.116;2023-08-21T08:31:55;14.88;;;10.13;;
65535;SDS011;52145;49.342;9.116;2023-08-21T08:34:21;14.55;;;11.30;;
65535;SDS011;52145;49.342;9.116;2023-08-21T08:36:47;17.85;;;10.95;;
65535;SDS011;52145;49.342;9.116;2023-08-21T08:39:13;16.85;;;11.60;;
65535;SDS011;52145;49.342;9.116;2023-08-21T08:41:50;15.00;;;11.90;;
65535;SDS011;52145;49.342;9.116;2023-08-21T08:44:19;17.20;;;12.40;;
65535;SDS011;52145;49.342;9.116;2023-08-21T08:46:45;16.58;;;12.05;;
65535;SDS011;52145;49.342;9.116;2023-08-21T08:49:11;15.90;;;11.77;;
65535;SDS011;52145;49.342;9.116;2023-08-21T08:51:37;13.95;;;11.35;;
65535;SDS011;52145;49.342;9.116;2023-08-21T08:54:05;14.05;;;11.10;;
65535;SDS011;52145;49.342;9.116;2023-08-21T08:56:32;15.27;;;11.52;;
65535;SDS011;52145;49.342;9.116;2023-08-21T08:58:58;15.63;;;12.35;;
65535;SDS011;52145;49.342;9.116;2023-08-21T09:01:24;13.07;;;10.85;;
65535;SDS011;52145;49.342;9.116;2023-08-21T09:03:50;14.35;;;11.75;;
65535;SDS011;52145;49.342;9.116;2023-08-21T09:06:16;14.80;;;11.07;;
65535;SDS011;52145;49.342;9.116;2023-08-21T09:08:54;12.38;;;10.07;;
65535;SDS011;52145;49.342;9.116;2023-08-21T09:11:21;14.60;;;10.23;;
65535;SDS011;52145;49.342;9.116;2023-08-21T09:13:50;12.77;;;9.98;;
65535;SDS011;52145;49.342;9.116;2023-08-21T09:16:20;15.68;;;10.25;;
65535;SDS011;52145;49.342;9.116;2023-08-21T09:18:49;14.77;;;9.35;;
65535;SDS011;52145;49.342;9.116;2023-08-21T09:21:16;12.50;;;9.55;;
65535;SDS011;52145;49.342;9.116;2023-08-21T09:23:42;13.57;;;8.77;;
65535;SDS011;52145;49.342;9.116;2023-08-21T09:26:09;16.10;;;10.02;;
65535;SDS011;52145;49.342;9.116;2023-08-21T09:28:35;10.02;;;8.10;;
65535;SDS011;52145;49.342;9.116;2023-08-21T09:31:01;15.82;;;8.60;;
65535;SDS011;52145;49.342;9.116;2023-08-21T09:33:28;9.25;;;6.88;;
65535;SDS011;52145;49.342;9.116;2023-08-21T09:35:54;11.48;;;7.82;;
65535;SDS011;52145;49.342;9.116;2023-08-21T09:38:20;8.50;;;7.13;;
65535;SDS011;52145;49.342;9.116;2023-08-21T09:40:50;11.40;;;7.72;;
65535;SDS011;52145;49.342;9.116;2023-08-21T09:43:17;12.63;;;7.88;;
65535;SDS011;52145;49.342;9.116;2023-08-21T09:45:45;11.80;;;6.55;;
65535;SDS011;52145;49.342;9.116;2023-08-21T09:48:12;7.97;;;5.28;;
65535;SDS011;52145;49.342;9.116;2023-08-21T09:50:38;8.05;;;5.38;;
65535;SDS011;52145;49.342;9.116;2023-08-21T09:53:08;8.52;;;5.20;;
65535;SDS011;52145;49.342;9.116;2023-08-21T09:55:35;8.50;;;5.68;;
65535;SDS011;52145;49.342;9.116;2023-08-21T09:58:01;8.48;;;5.43;;
65535;SDS011;52145;49.342;9.116;2023-08-21T10:00:31;8.05;;;5.07;;
65535;SDS011;52145;49.342;9.116;2023-08-21T10:03:04;12.05;;;5.95;;
65535;SDS011;52145;49.342;9.116;2023-08-21T10:05:32;8.05;;;5.55;;
65535;SDS011;52145;49.342;9.116;2023-08-21T10:08:00;9.23;;;6.10;;
65535;SDS011;52145;49.342;9.116;2023-08-21T10:10:30;10.25;;;5.80;;
65535;SDS011;52145;49.342;9.116;2023-08-21T10:12:56;9.43;;;5.85;;
65535;SDS011;52145;49.342;9.116;2023-08-21T10:15:22;8.48;;;5.50;;
65535;SDS011;52145;49.342;9.116;2023-08-21T10:17:48;10.68;;;5.60;;
65535;SDS011;52145;49.342;9.116;2023-08-21T10:20:15;9.00;;;4.97;;
65535;SDS011;52145;49.342;9.116;2023-08-21T10:22:53;10.57;;;6.53;;
65535;SDS011;52145;49.342;9.116;2023-08-21T10:25:23;8.43;;;5.15;;
65535;SDS011;52145;49.342;9.116;2023-08-21T10:27:54;6.95;;;4.65;;
65535;SDS011;52145;49.342;9.116;2023-08-21T10:30:27;10.30;;;5.07;;
65535;SDS011;52145;49.342;9.116;2023-08-21T10:32:54;8.18;;;5.00;;
65535;SDS011;52145;49.342;9.116;2023-08-21T10:35:21;5.18;;;4.05;;
65535;SDS011;52145;49.342;9.116;2023-08-21T10:40:32;6.90;;;4.72;;
65535;SDS011;52145;49.342;9.116;2023-08-21T10:42:58;8.10;;;4.80;;
65535;SDS011;52145;49.342;9.116;2023-08-21T10:45:24;7.28;;;4.80;;
65535;SDS011;52145;49.342;9.116;2023-08-21T10:47:50;6.53;;;4.47;;
65535;SDS011;52145;49.342;9.116;2023-08-21T10:50:16;9.77;;;4.90;;
65535;SDS011;52145;49.342;9.116;2023-08-21T10:52:43;6.10;;;4.68;;
65535;SDS011;52145;49.342;9.116;2023-08-21T10:55:14;8.27;;;4.72;;
65535;SDS011;52145;49.342;9.116;2023-08-21T10:57:40;7.05;;;4.70;;
65535;SDS011;52145;49.342;9.116;2023-08-21T11:00:07;9.32;;;5.05;;
65535;SDS011;52145;49.342;9.116;2023-08-21T11:02:37;8.20;;;5.70;;
65535;SDS011;52145;49.342;9.116;2023-08-21T11:05:04;10.15;;;5.53;;
65535;SDS011;52145;49.342;9.116;2023-08-21T11:07:30;7.88;;;4.55;;
65535;SDS011;52145;49.342;9.116;2023-08-21T11:09:56;7.10;;;4.40;;
65535;SDS011;52145;49.342;9.116;2023-08-21T11:12:23;9.70;;;5.55;;
65535;SDS011;52145;49.342;9.116;2023-08-21T11:14:49;7.18;;;5.30;;
65535;SDS011;52145;49.342;9.116;2023-08-21T11:17:15;7.75;;;6.00;;
65535;SDS011;52145;49.342;9.116;2023-08-21T11:19:42;7.50;;;5.53;;
65535;SDS011;52145;49.342;9.116;2023-08-21T11:22:08;7.82;;;5.97;;
65535;SDS011;52145;49.342;9.116;2023-08-21T11:27:07;10.63;;;6.32;;
65535;SDS011;52145;49.342;9.116;2023-08-21T11:29:38;9.75;;;5.72;;
65535;SDS011;52145;49.342;9.116;2023-08-21T11:32:07;9.98;;;5.70;;
65535;SDS011;52145;49.342;9.116;2023-08-21T11:34:34;12.13;;;5.35;;
65535;SDS011;52145;49.342;9.116;2023-08-21T11:37:00;9.05;;;5.13;;
65535;SDS011;52145;49.342;9.116;2023-08-21T11:39:26;8.35;;;5.65;;
65535;SDS011;52145;49.342;9.116;2023-08-21T11:41:57;7.30;;;5.70;;
65535;SDS011;52145;49.342;9.116;2023-08-21T11:44:24;10.00;;;5.65;;
65535;SDS011;52145;49.342;9.116;2023-08-21T11:46:51;7.32;;;4.82;;
65535;SDS011;52145;49.342;9.116;2023-08-21T11:49:20;7.43;;;4.95;;
65535;SDS011;52145;49.342;9.116;2023-08-21T11:52:29;7.38;;;5.00;;
65535;SDS011;52145;49.342;9.116;2023-08-21T11:55:43;8.45;;;4.70;;
65535;SDS011;52145;49.342;9.116;2023-08-21T11:58:09;8.65;;;4.80;;
65535;SDS011;52145;49.342;9.116;2023-08-21T12:05:05;9.48;;;4.47;;
65535;SDS011;52145;49.342;9.116;2023-08-21T12:07:34;6.45;;;4.28;;
65535;SDS011;52145;49.342;9.116;2023-08-21T12:11:01;10.23;;;4.97;;
65535;SDS011;52145;49.342;9.116;2023-08-21T12:13:27;6.63;;;3.92;;
65535;SDS011;52145;49.342;9.116;2023-08-21T12:15:53;7.80;;;4.43;;
65535;SDS011;52145;49.342;9.116;2023-08-21T12:18:19;9.75;;;4.80;;
65535;SDS011;52145;49.342;9.116;2023-08-21T12:21:56;8.55;;;4.80;;
65535;SDS011;52145;49.342;9.116;2023-08-21T12:24:23;6.38;;;4.00;;
65535;SDS011;52145;49.342;9.116;2023-08-21T12:26:49;5.95;;;3.85;;
65535;SDS011;52145;49.342;9.116;2023-08-21T12:29:39;4.60;;;3.80;;
65535;SDS011;52145;49.342;9.116;2023-08-21T12:32:05;6.22;;;4.50;;
65535;SDS011;52145;49.342;9.116;2023-08-21T12:35:22;7.78;;;4.65;;
65535;SDS011;52145;49.342;9.116;2023-08-21T12:37:47;8.90;;;4.32;;
65535;SDS011;52145;49.342;9.116;2023-08-21T12:40:13;5.78;;;3.60;;
65535;SDS011;52145;49.342;9.116;2023-08-21T12:42:39;7.40;;;3.97;;
65535;SDS011;52145;49.342;9.116;2023-08-21T12:45:05;6.40;;;4.13;;
65535;SDS011;52145;49.342;9.116;2023-08-21T12:47:31;6.57;;;3.85;;
65535;SDS011;52145;49.342;9.116;2023-08-21T12:49:58;6.47;;;3.80;;
65535;SDS011;52145;49.342;9.116;2023-08-21T12:52:24;8.55;;;3.80;;
65535;SDS011;52145;49.342;9.116;2023-08-21T12:54:50;8.85;;;4.50;;
65535;SDS011;52145;49.342;9.116;2023-08-21T12:57:16;6.65;;;4.10;;
65535;SDS011;52145;49.342;9.116;2023-08-21T12:59:42;5.05;;;3.58;;
65535;SDS011;52145;49.342;9.116;2023-08-21T13:02:08;7.35;;;4.25;;
65535;SDS011;52145;49.342;9.116;2023-08-21T13:04:34;8.55;;;4.07;;
65535;SDS011;52145;49.342;9.116;2023-08-21T13:07:00;7.35;;;3.85;;
65535;SDS011;52145;49.342;9.116;2023-08-21T13:09:28;5.00;;;3.03;;
65535;SDS011;52145;49.342;9.116;2023-08-21T13:11:54;6.18;;;3.92;;
65535;SDS011;52145;49.342;9.116;2023-08-21T13:14:20;5.53;;;3.70;;
65535;SDS011;52145;49.342;9.116;2023-08-21T13:16:46;5.00;;;3.10;;
65535;SDS011;52145;49.342;9.116;2023-08-21T13:19:12;8.43;;;3.50;;
65535;SDS011;52145;49.342;9.116;2023-08-21T13:21:38;5.55;;;3.42;;
65535;SDS011;52145;49.342;9.116;2023-08-21T13:24:04;8.50;;;3.92;;
65535;SDS011;52145;49.342;9.116;2023-08-21T13:26:30;6.45;;;3.58;;
65535;SDS011;52145;49.342;9.116;2023-08-21T13:28:57;4.97;;;3.55;;
65535;SDS011;52145;49.342;9.116;2023-08-21T13:31:23;7.15;;;3.92;;
65535;SDS011;52145;49.342;9.116;2023-08-21T13:33:49;6.57;;;3.92;;
65535;SDS011;52145;49.342;9.116;2023-08-21T13:36:16;7.50;;;3.30;;
65535;SDS011;52145;49.342;9.116;2023-08-21T13:38:43;5.75;;;3.38;;
65535;SDS011;52145;49.342;9.116;2023-08-21T13:41:09;4.50;;;3.15;;
65535;SDS011;52145;49.342;9.116;2023-08-21T13:43:36;4.22;;;3.45;;
65535;SDS011;52145;49.342;9.116;2023-08-21T13:46:02;5.95;;;3.72;;
65535;SDS011;52145;49.342;9.116;2023-08-21T13:48:31;6.13;;;3.33;;
65535;SDS011;52145;49.342;9.116;2023-08-21T13:50:57;6.72;;;3.65;;
65535;SDS011;52145;49.342;9.116;2023-08-21T13:53:23;4.85;;;3.63;;
65535;SDS011;52145;49.342;9.116;2023-08-21T13:55:49;5.18;;;3.83;;
65535;SDS011;52145;49.342;9.116;2023-08-21T13:58:16;6.45;;;3.53;;
65535;SDS011;52145;49.342;9.116;2023-08-21T14:00:42;5.45;;;3.35;;
65535;SDS011;52145;49.342;9.116;2023-08-21T14:03:09;7.05;;;3.55;;
65535;SDS011;52145;49.342;9.116;2023-08-21T14:05:35;6.97;;;3.45;;
65535;SDS011;52145;49.342;9.116;2023-08-21T14:08:01;4.20;;;3.20;;
65535;SDS011;52145;49.342;9.116;2023-08-21T14:10:27;5.13;;;3.45;;
65535;SDS011;52145;49.342;9.116;2023-08-21T14:12:55;5.68;;;3.17;;
65535;SDS011;52145;49.342;9.116;2023-08-21T14:15:22;5.78;;;3.17;;
65535;SDS011;52145;49.342;9.116;2023-08-21T14:17:48;4.75;;;3.20;;
65535;SDS011;52145;49.342;9.116;2023-08-21T14:20:14;4.53;;;2.85;;
65535;SDS011;52145;49.342;9.116;2023-08-21T14:22:40;7.70;;;3.15;;
65535;SDS011;52145;49.342;9.116;2023-08-21T14:25:07;5.47;;;3.90;;
65535;SDS011;52145;49.342;9.116;2023-08-21T14:27:33;5.93;;;3.58;;
65535;SDS011;52145;49.342;9.116;2023-08-21T14:29:59;4.72;;;3.30;;
65535;SDS011;52145;49.342;9.116;2023-08-21T14:32:25;6.82;;;4.00;;
65535;SDS011;52145;49.342;9.116;2023-08-21T14:34:51;8.98;;;3.65;;
65535;SDS011;52145;49.342;9.116;2023-08-21T14:37:20;5.32;;;3.25;;
65535;SDS011;52145;49.342;9.116;2023-08-21T14:39:48;5.07;;;3.05;;
65535;SDS011;52145;49.342;9.116;2023-08-21T14:42:14;7.80;;;3.20;;
65535;SDS011;52145;49.342;9.116;2023-08-21T14:44:40;6.13;;;3.50;;
65535;SDS011;52145;49.342;9.116;2023-08-21T14:47:06;9.32;;;3.10;;
65535;SDS011;52145;49.342;9.116;2023-08-21T14:49:32;6.18;;;3.50;;
65535;SDS011;52145;49.342;9.116;2023-08-21T14:51:58;5.78;;;3.25;;
65535;SDS011;52145;49.342;9.116;2023-08-21T14:54:24;4.45;;;3.50;;
65535;SDS011;52145;49.342;9.116;2023-08-21T14:56:50;6.40;;;3.35;;
65535;SDS011;52145;49.342;9.116;2023-08-21T14:59:16;6.50;;;3.60;;
65535;SDS011;52145;49.342;9.116;2023-08-21T15:01:42;6.75;;;3.25;;
65535;SDS011;52145;49.342;9.116;2023-08-21T15:04:08;5.25;;;3.55;;
65535;SDS011;52145;49.342;9.116;2023-08-21T15:06:35;8.27;;;3.88;;
65535;SDS011;52145;49.342;9.116;2023-08-21T15:09:01;6.15;;;3.78;;
65535;SDS011;52145;49.342;9.116;2023-08-21T15:11:27;6.25;;;3.80;;
65535;SDS011;52145;49.342;9.116;2023-08-21T15:13:53;6.43;;;4.00;;
65535;SDS011;52145;49.342;9.116;2023-08-21T15:16:19;7.20;;;3.20;;
65535;SDS011;52145;49.342;9.116;2023-08-21T15:18:45;6.15;;;3.65;;
65535;SDS011;52145;49.342;9.116;2023-08-21T15:21:17;7.20;;;3.60;;
65535;SDS011;52145;49.342;9.116;2023-08-21T15:23:43;5.97;;;3.30;;
65535;SDS011;52145;49.342;9.116;2023-08-21T15:26:08;5.53;;;2.85;;
65535;SDS011;52145;49.342;9.116;2023-08-21T15:28:34;3.65;;;2.80;;
65535;SDS011;52145;49.342;9.116;2023-08-21T15:31:00;4.10;;;2.80;;
65535;SDS011;52145;49.342;9.116;2023-08-21T15:33:28;5.07;;;2.97;;
65535;SDS011;52145;49.342;9.116;2023-08-21T15:35:54;3.47;;;2.60;;
65535;SDS011;52145;49.342;9.116;2023-08-21T15:38:20;5.30;;;2.80;;
65535;SDS011;52145;49.342;9.116;2023-08-21T15:40:45;4.70;;;2.95;;
65535;SDS011;52145;49.342;9.116;2023-08-21T15:43:11;5.22;;;2.83;;
65535;SDS011;52145;49.342;9.116;2023-08-21T15:45:38;4.70;;;3.08;;
65535;SDS011;52145;49.342;9.116;2023-08-21T15:48:04;4.35;;;3.05;;
65535;SDS011;52145;49.342;9.116;2023-08-21T15:50:30;8.40;;;3.25;;
65535;SDS011;52145;49.342;9.116;2023-08-21T15:52:56;7.95;;;3.53;;
65535;SDS011;52145;49.342;9.116;2023-08-21T15:55:22;5.18;;;3.00;;
65535;SDS011;52145;49.342;9.116;2023-08-21T15:57:48;4.82;;;3.53;;
65535;SDS011;52145;49.342;9.116;2023-08-21T16:00:15;7.63;;;3.50;;
65535;SDS011;52145;49.342;9.116;2023-08-21T16:02:41;7.85;;;3.17;;
65535;SDS011;52145;49.342;9.116;2023-08-21T16:05:07;5.25;;;3.20;;
65535;SDS011;52145;49.342;9.116;2023-08-21T16:07:33;4.13;;;3.08;;
65535;SDS011;52145;49.342;9.116;2023-08-21T16:10:00;5.28;;;2.88;;
65535;SDS011;52145;49.342;9.116;2023-08-21T16:12:26;6.93;;;3.25;;
65535;SDS011;52145;49.342;9.116;2023-08-21T16:14:52;4.25;;;3.03;;
65535;SDS011;52145;49.342;9.116;2023-08-21T16:17:17;5.03;;;2.80;;
65535;SDS011;52145;49.342;9.116;2023-08-21T16:19:45;6.00;;;3.70;;
65535;SDS011;52145;49.342;9.116;2023-08-21T16:22:11;8.50;;;3.67;;
65535;SDS011;52145;49.342;9.116;2023-08-21T16:24:37;7.68;;;3.53;;
65535;SDS011;52145;49.342;9.116;2023-08-21T16:27:03;5.63;;;3.25;;
65535;SDS011;52145;49.342;9.116;2023-08-21T16:29:29;7.22;;;3.05;;
65535;SDS011;52145;49.342;9.116;2023-08-21T16:31:56;5.07;;;3.67;;
65535;SDS011;52145;49.342;9.116;2023-08-21T16:34:25;5.05;;;3.10;;
65535;SDS011;52145;49.342;9.116;2023-08-21T16:36:51;4.88;;;3.13;;
65535;SDS011;52145;49.342;9.116;2023-08-21T16:39:17;7.38;;;3.80;;
65535;SDS011;52145;49.342;9.116;2023-08-21T16:41:43;5.07;;;3.45;;
65535;SDS011;52145;49.342;9.116;2023-08-21T16:44:09;8.25;;;3.40;;
65535;SDS011;52145;49.342;9.116;2023-08-21T16:46:35;3.85;;;3.08;;
65535;SDS011;52145;49.342;9.116;2023-08-21T16:49:01;7.53;;;4.00;;
65535;SDS011;52145;49.342;9.116;2023-08-21T16:51:28;6.55;;;3.38;;
65535;SDS011;52145;49.342;9.116;2023-08-21T16:53:54;5.20;;;3.55;;
65535;SDS011;52145;49.342;9.116;2023-08-21T16:56:21;5.72;;;3.42;;
65535;SDS011;52145;49.342;9.116;2023-08-21T16:58:47;6.40;;;3.50;;
65535;SDS011;52145;49.342;9.116;2023-08-21T17:01:13;6.82;;;3.25;;
65535;SDS011;52145;49.342;9.116;2023-08-21T17:03:39;5.13;;;3.55;;
65535;SDS011;52145;49.342;9.116;2023-08-21T17:06:05;6.00;;;3.42;;
65535;SDS011;52145;49.342;9.116;2023-08-21T17:08:31;7.28;;;3.78;;
65535;SDS011;52145;49.342;9.116;2023-08-21T17:10:57;7.97;;;3.67;;